Portada
METAR-TAF:

METAR-TAF

Aeroports :

Angulema, França

latitud: 45-43-46N, longitud: 00-13-08E, altitud: 132 m

Observació

L'informe es va fer fa 39 minuts, a les 20:00 UTC
Vent 5 kt del Oest
Temperatura 15°C
Humitat 72%
Pressió 1022 hPa
Visibilitat 10 km o més
sense núvols per sota de 1500 mi sense presència de cumulonimbus.

METAR: LFBU 152000Z AUTO 27005KT CAVOK 15/10 Q1022 NOSIG

Hora: 22:39 (20:39 UTC)

Pronòstic

L'informe es va fer fa 3 hores i 39 minuts, a les 17:00 UTC
Pronòstic vàlid del 15 a les 18 UTC al 16 a les 18 UTC
Vent 8 kt del Oest
Visibilitat 10 km o més
sense núvols per sota de 1500 mi sense presència de cumulonimbus.
Probabilitat 40% :
Temporalment
l' 16 a les 02 UTC al 16 a les 08 UTC
Visibilitat: 3000 m
Cel ennuvolat a una alçada de 1000 ft
boirina
Probabilitat 30% :
Temporalment
l' 16 a les 03 UTC al 16 a les 06 UTC
Visibilitat: 0400 m
boira

TAF: LFBU 151700Z 1518/1618 26008KT CAVOK PROB40 TEMPO 1602/1608 3000 BR BKN010 PROB30 TEMPO 1603/1606 0400 FG VV///

Observacions i pronòstics meteorològics de més de 4000 aeroports (METAR i TAF).

Les estacions disponibles són els punts grocs i vermells al mapa.

Posi el ratolí al punt desitjat per veure el nom de l'estació.

Feu clic per veure les observacions i els pronòstics meteorològics.

Per canviar el mapa: feu clic els botons verds amb una creu de color negre per apropar; al botó verd amb un guió per allunyar la imatge; o en les fletxes verdes per a mapes adjacents.


METAR-TAF: